Arctic Village, AK

17:35 AKDT le 28 septembre 2016 (GMT -0800)
Arctic Village | | Change Station

Alt. 2090 ft 68.11 °N, 145.58 °W | Updated 19 minutes ago

Overcast
Couvert
25 ° F
Paraît 19 ° F
N
5
Vent Variable Vent de NE

Aujourd'hui
Haut(e) -- | Bas -- ° F
--% Risque de précip.
Hier
Haut(e) -- | Bas -- ° F
Precip. -- pouce
Pression 29.92 pouce
Visibilité 10.0 Miles terrestres
Nuages Couvert 1400 ft
Refroidissement éolien 19 ° F
Point de rosée 21 ° F
Humidité 86%
Précipitations 0.00 pouce
Profondeur de la couche neigeuse Non disponible.
7:47 AM 7:16 PM
Lune descendante, 4% visible
METAR PARC 290116Z AUTO 04004KT 10SM OVC014 M04/M06 A2992 RMK AO1
Pression 29.92 pouce
Visibilité 10.0 Miles terrestres
Nuages Couvert 1400 ft
Refroidissement éolien 19 ° F
Point de rosée 21 ° F
Humidité 86%
Précipitations 0.00 pouce
Profondeur de la couche neigeuse Non disponible.
7:47 AM 7:16 PM
Lune descendante, 4% visible
METAR PARC 290116Z AUTO 04004KT 10SM OVC014 M04/M06 A2992 RMK AO1

10-Day Weather Forecast

Almanac

Astronomie

Sep. 28, 2016 Lever Coucher
Temps réel
Crépuscule civil
Crépuscule nautique
Crépuscule astronomique
Lune
Durée de lumière visible
Longueur du jour
Tomorrow will be .
, % of the Moon is Illuminated

Extrêmes aujourd'hui

State Highs State Lows

Community

WunderPhotos

Upload Photos

1,942,390 Photos téléchargées !

WunderBlog® & News

Nearby

Qualité de l'air

  Qualité de l'air Indice de la qualité de l'air Polluant
Not available.

Épaisseur de neige

Station Depth Altitude

Activité sismique

Ville Distance Mag. Time & Date
Minimum magnitude displayed is 2.5.

Températures des eaux côtières

Lieu Température

Stations

Stations météo à proximité

Emplacement de la station Température Refroidissement éolien Point de rosée Humidité Vent Precip. Alt. Mise à jour Type
                   

Watches & Warnings

There are currently no watches in effect.